Date,TemperatureHighF,TemperatureAvgF,TemperatureLowF,DewpointHighF,DewpointAvgF,DewpointLowF,HumidityHigh,HumidityAvg,HumidityLow,PressureMaxIn,PressureMinIn,WindSpeedMaxMPH,WindSpeedAvgMPH,GustSpeedMaxMPH,PrecipitationSumIn
2012-12-1,40.0,36.4,33.0,37.0,33.5,29.6,92,89,87,30.11,29.78,13,3,17,0.00
2012-12-2,42.0,36.4,34.0,39.0,33.7,31.6,91,90,88,30.03,29.81,10,3,16,0.00
2012-12-3,52.0,45.6,37.0,49.7,40.8,27.5,92,84,61,29.93,29.56,16,6,21,0.02
2012-12-4,39.0,24.7,11.0,27.8,13.5,5.5,78,62,49,30.48,29.93,16,5,20,0.00
2012-12-5,38.0,23.8,9.0,21.0,12.3,4.4,85,64,46,30.50,29.89,21,4,27,0.00
2012-12-6,41.0,35.5,20.0,33.4,25.7,15.1,83,68,51,30.05,29.79,18,5,27,0.02
2012-12-7,28.0,23.1,15.0,22.3,17.9,11.8,89,80,72,30.13,30.05,5,1,8,0.00
2012-12-8,33.0,24.8,16.0,22.9,18.1,11.2,83,75,64,30.14,30.08,5,2,9,0.00
2012-12-9,30.0,27.1,16.0,26.2,23.9,12.8,90,87,76,30.11,29.93,10,4,18,0.00
2012-12-10,17.0,8.7,-2.0,12.8,3.8,-6.4,87,80,66,30.01,29.90,11,2,14,0.00
2012-12-11,15.0,5.3,-9.0,9.8,0.8,-13.2,86,81,72,30.11,29.86,9,1,12,0.00
2012-12-12,36.0,19.7,-8.0,27.8,13.9,-12.0,89,78,68,30.12,29.88,10,2,14,0.00
2012-12-13,33.0,24.9,10.0,25.9,19.7,6.7,86,81,68,30.20,29.96,6,2,10,0.00
2012-12-14,34.0,20.7,6.0,28.2,16.1,2.7,90,83,68,30.21,29.87,9,2,13,0.03
2012-12-15,36.0,34.5,32.0,33.6,31.1,28.2,93,88,79,29.86,29.59,6,2,10,0.89
2012-12-16,33.0,26.6,20.0,31.5,24.2,16.5,94,90,86,29.87,29.60,12,5,18,0.11
2012-12-17,22.0,20.1,19.0,18.2,16.9,15.9,89,87,83,29.86,29.77,8,2,11,0.00
2012-12-18,29.0,22.6,17.0,22.9,18.8,14.6,90,86,74,29.88,29.72,5,1,6,0.00
2012-12-19,31.0,27.1,22.0,26.7,23.7,19.0,91,87,81,30.07,29.88,8,2,13,0.00
2012-12-20,25.0,20.2,9.0,19.7,15.1,4.6,85,80,74,30.13,29.91,18,7,27,0.00
2012-12-21,22.0,9.8,2.0,9.1,3.5,-1.7,84,76,55,30.31,30.12,10,3,14,0.00
2012-12-22,24.0,12.1,1.0,13.7,6.1,-2.7,86,77,56,30.26,30.02,10,2,16,0.00
2012-12-23,19.0,12.3,3.0,9.2,5.5,-0.5,86,74,60,30.24,30.11,9,2,11,0.00
2012-12-24,15.0,9.3,0.0,6.7,1.4,-4.7,81,70,51,30.38,30.10,11,3,14,0.00
2012-12-25,11.0,-0.6,-9.0,0.2,-6.4,-13.2,82,76,60,30.56,30.38,6,1,9,0.00
2012-12-26,18.0,2.8,-6.0,6.8,-3.0,-10.3,83,77,58,30.49,30.33,6,0,6,0.00
2012-12-27,24.0,11.6,-5.0,14.6,5.7,-9.3,84,77,63,30.37,30.22,3,0,4,0.00
2012-12-28,24.0,16.1,6.0,17.5,11.9,2.2,87,83,75,30.22,30.07,4,1,5,0.00
2012-12-29,19.0,13.5,2.0,14.8,9.1,-2.2,87,82,74,30.23,30.08,11,2,17,0.00
2012-12-30,18.0,7.3,-2.0,10.5,2.4,-5.9,85,80,70,30.27,29.96,8,1,11,0.00
2012-12-31,16.0,6.0,-13.0,12.0,-1.6,-18.1,86,71,52,30.35,30.05,16,3,21,0.00